Burton Latimer, United Kingdom
Current Conditions -  °F | °C
As of 5:50 PM on Wednesday 26 Nov 2014 (Local Time) from EGXT Reporting Station
Moderate Fog Moderate Fog  
Wind Chill: 46°   Ceiling: Unl
Heat Index: 46°   Visibility: 0.09mi
Dew Point: 46°   Wind: 2mph
Humidity: 100%   Direction: 20°NNE
Pressure: 29.8"   Gusts: NA
Location:  52.36°N, 0.68°W
Report Text: EGXT 261750Z AUTO 02002KT 0150 FG VV/// 08/08 Q1009
Loading
Personal Weather Stations






























Interactive Weather Map New forecast layout! Learn more

10-Day Weather Forecast

Advertisements
Track Severe Weather on mobile